sensor_id;sensor_type;location;lat;lon;timestamp;temperature;humidity
851;DHT22;412;51.400;7.480;2022-07-09T00:00:33;18.90;99.90
851;DHT22;412;51.400;7.480;2022-07-09T00:02:59;18.90;99.90
851;DHT22;412;51.400;7.480;2022-07-09T00:05:25;18.90;99.90
851;DHT22;412;51.400;7.480;2022-07-09T00:07:50;18.90;99.90
851;DHT22;412;51.400;7.480;2022-07-09T00:10:16;18.80;99.90
851;DHT22;412;51.400;7.480;2022-07-09T00:12:42;18.80;99.90
851;DHT22;412;51.400;7.480;2022-07-09T00:15:08;18.80;99.90
851;DHT22;412;51.400;7.480;2022-07-09T00:17:34;18.70;99.90
851;DHT22;412;51.400;7.480;2022-07-09T00:19:59;18.70;99.90
851;DHT22;412;51.400;7.480;2022-07-09T00:22:27;18.70;99.90
851;DHT22;412;51.400;7.480;2022-07-09T00:24:53;18.70;99.90
851;DHT22;412;51.400;7.480;2022-07-09T00:27:19;18.70;99.90
851;DHT22;412;51.400;7.480;2022-07-09T00:29:44;18.60;99.90
851;DHT22;412;51.400;7.480;2022-07-09T00:32:10;18.70;99.90
851;DHT22;412;51.400;7.480;2022-07-09T00:34:36;18.60;99.90
851;DHT22;412;51.400;7.480;2022-07-09T00:37:01;18.60;99.90
851;DHT22;412;51.400;7.480;2022-07-09T00:39:27;18.60;99.90
851;DHT22;412;51.400;7.480;2022-07-09T00:42:06;18.60;99.90
851;DHT22;412;51.400;7.480;2022-07-09T00:44:32;18.60;99.90
851;DHT22;412;51.400;7.480;2022-07-09T00:46:58;18.60;99.90
851;DHT22;412;51.400;7.480;2022-07-09T00:49:29;18.50;99.90
851;DHT22;412;51.400;7.480;2022-07-09T00:51:56;18.50;99.90
851;DHT22;412;51.400;7.480;2022-07-09T00:54:23;18.50;99.90
851;DHT22;412;51.400;7.480;2022-07-09T00:56:50;18.50;99.90
851;DHT22;412;51.400;7.480;2022-07-09T00:59:17;18.50;99.90
851;DHT22;412;51.400;7.480;2022-07-09T01:01:43;18.40;99.90
851;DHT22;412;51.400;7.480;2022-07-09T01:04:09;18.40;99.90
851;DHT22;412;51.400;7.480;2022-07-09T01:06:35;18.40;99.90
851;DHT22;412;51.400;7.480;2022-07-09T01:09:02;18.40;99.90
851;DHT22;412;51.400;7.480;2022-07-09T01:11:28;18.30;99.90
851;DHT22;412;51.400;7.480;2022-07-09T01:13:54;18.30;99.90
851;DHT22;412;51.400;7.480;2022-07-09T01:16:20;18.30;99.90
851;DHT22;412;51.400;7.480;2022-07-09T01:18:47;18.30;99.90
851;DHT22;412;51.400;7.480;2022-07-09T01:21:16;18.30;99.90
851;DHT22;412;51.400;7.480;2022-07-09T01:23:41;18.30;99.90
851;DHT22;412;51.400;7.480;2022-07-09T01:26:08;18.20;99.90
851;DHT22;412;51.400;7.480;2022-07-09T01:28:33;18.20;99.90
851;DHT22;412;51.400;7.480;2022-07-09T01:30:59;18.20;99.90
851;DHT22;412;51.400;7.480;2022-07-09T01:33:26;18.20;99.90
851;DHT22;412;51.400;7.480;2022-07-09T01:35:51;18.20;99.90
851;DHT22;412;51.400;7.480;2022-07-09T01:38:17;18.10;99.90
851;DHT22;412;51.400;7.480;2022-07-09T01:40:43;18.10;99.90
851;DHT22;412;51.400;7.480;2022-07-09T01:43:08;18.10;99.90
851;DHT22;412;51.400;7.480;2022-07-09T01:45:34;18.10;99.90
851;DHT22;412;51.400;7.480;2022-07-09T01:48:00;18.10;99.90
851;DHT22;412;51.400;7.480;2022-07-09T01:50:25;18.10;99.90
851;DHT22;412;51.400;7.480;2022-07-09T01:52:51;18.10;99.90
851;DHT22;412;51.400;7.480;2022-07-09T01:55:17;18.00;99.90
851;DHT22;412;51.400;7.480;2022-07-09T01:57:43;18.00;99.90
851;DHT22;412;51.400;7.480;2022-07-09T02:00:09;18.00;99.90
851;DHT22;412;51.400;7.480;2022-07-09T02:02:35;18.00;99.90
851;DHT22;412;51.400;7.480;2022-07-09T02:05:00;18.00;99.90
851;DHT22;412;51.400;7.480;2022-07-09T02:07:26;18.00;99.90
851;DHT22;412;51.400;7.480;2022-07-09T02:09:52;18.00;99.90
851;DHT22;412;51.400;7.480;2022-07-09T02:12:17;17.90;99.90
851;DHT22;412;51.400;7.480;2022-07-09T02:14:43;17.90;99.90
851;DHT22;412;51.400;7.480;2022-07-09T02:17:10;17.90;99.90
851;DHT22;412;51.400;7.480;2022-07-09T02:19:35;17.90;99.90
851;DHT22;412;51.400;7.480;2022-07-09T02:22:01;17.90;99.90
851;DHT22;412;51.400;7.480;2022-07-09T02:24:27;17.90;99.90
851;DHT22;412;51.400;7.480;2022-07-09T02:26:54;17.80;99.90
851;DHT22;412;51.400;7.480;2022-07-09T02:29:20;17.80;99.90
851;DHT22;412;51.400;7.480;2022-07-09T02:31:45;17.80;99.90
851;DHT22;412;51.400;7.480;2022-07-09T02:34:11;17.70;99.90
851;DHT22;412;51.400;7.480;2022-07-09T02:36:37;17.70;99.90
851;DHT22;412;51.400;7.480;2022-07-09T02:39:03;17.70;99.90
851;DHT22;412;51.400;7.480;2022-07-09T02:41:28;17.70;99.90
851;DHT22;412;51.400;7.480;2022-07-09T02:43:54;17.70;99.90
851;DHT22;412;51.400;7.480;2022-07-09T02:46:20;17.70;99.90
851;DHT22;412;51.400;7.480;2022-07-09T02:48:46;17.70;99.90
851;DHT22;412;51.400;7.480;2022-07-09T02:51:11;17.70;99.90
851;DHT22;412;51.400;7.480;2022-07-09T02:53:37;17.80;99.90
851;DHT22;412;51.400;7.480;2022-07-09T02:56:03;17.80;99.90
851;DHT22;412;51.400;7.480;2022-07-09T02:58:29;17.80;99.90
851;DHT22;412;51.400;7.480;2022-07-09T03:00:56;17.90;99.90
851;DHT22;412;51.400;7.480;2022-07-09T03:03:22;17.90;99.90
851;DHT22;412;51.400;7.480;2022-07-09T03:05:49;17.90;99.90
851;DHT22;412;51.400;7.480;2022-07-09T03:08:14;17.90;99.90
851;DHT22;412;51.400;7.480;2022-07-09T03:10:40;17.90;99.90
851;DHT22;412;51.400;7.480;2022-07-09T03:13:06;18.00;99.90
851;DHT22;412;51.400;7.480;2022-07-09T03:15:32;18.00;99.90
851;DHT22;412;51.400;7.480;2022-07-09T03:17:57;18.00;99.90
851;DHT22;412;51.400;7.480;2022-07-09T03:20:23;18.00;99.90
851;DHT22;412;51.400;7.480;2022-07-09T03:22:49;18.00;99.90
851;DHT22;412;51.400;7.480;2022-07-09T03:25:14;18.10;99.90
851;DHT22;412;51.400;7.480;2022-07-09T03:27:40;18.10;99.90
851;DHT22;412;51.400;7.480;2022-07-09T03:30:06;18.10;99.90
851;DHT22;412;51.400;7.480;2022-07-09T03:32:32;18.10;99.90
851;DHT22;412;51.400;7.480;2022-07-09T03:34:58;18.10;99.90
851;DHT22;412;51.400;7.480;2022-07-09T03:37:24;18.10;99.90
851;DHT22;412;51.400;7.480;2022-07-09T03:39:49;18.10;99.90
851;DHT22;412;51.400;7.480;2022-07-09T03:42:15;18.00;99.90
851;DHT22;412;51.400;7.480;2022-07-09T03:44:41;18.00;99.90
851;DHT22;412;51.400;7.480;2022-07-09T03:47:07;18.10;99.90
851;DHT22;412;51.400;7.480;2022-07-09T03:49:34;18.10;99.90
851;DHT22;412;51.400;7.480;2022-07-09T03:52:00;18.20;99.90
851;DHT22;412;51.400;7.480;2022-07-09T03:54:25;18.20;99.90
851;DHT22;412;51.400;7.480;2022-07-09T03:56:51;18.20;99.90
851;DHT22;412;51.400;7.480;2022-07-09T03:59:17;18.20;99.90
851;DHT22;412;51.400;7.480;2022-07-09T04:01:43;18.30;99.90
851;DHT22;412;51.400;7.480;2022-07-09T04:04:09;18.30;99.90
851;DHT22;412;51.400;7.480;2022-07-09T04:06:35;18.30;99.90
851;DHT22;412;51.400;7.480;2022-07-09T04:09:01;18.30;99.90
851;DHT22;412;51.400;7.480;2022-07-09T04:11:31;18.40;99.90
851;DHT22;412;51.400;7.480;2022-07-09T04:14:01;18.40;99.90
851;DHT22;412;51.400;7.480;2022-07-09T04:16:27;18.30;99.90
851;DHT22;412;51.400;7.480;2022-07-09T04:18:53;18.30;99.90
851;DHT22;412;51.400;7.480;2022-07-09T04:21:19;18.20;99.90
851;DHT22;412;51.400;7.480;2022-07-09T04:23:51;18.20;99.90
851;DHT22;412;51.400;7.480;2022-07-09T04:26:17;18.30;99.90
851;DHT22;412;51.400;7.480;2022-07-09T04:28:46;18.30;99.90
851;DHT22;412;51.400;7.480;2022-07-09T04:31:12;18.30;99.90
851;DHT22;412;51.400;7.480;2022-07-09T04:33:38;18.40;99.90
851;DHT22;412;51.400;7.480;2022-07-09T04:36:04;18.40;99.90
851;DHT22;412;51.400;7.480;2022-07-09T04:38:30;18.50;99.90
851;DHT22;412;51.400;7.480;2022-07-09T04:40:56;18.50;99.90
851;DHT22;412;51.400;7.480;2022-07-09T04:43:22;18.50;99.90
851;DHT22;412;51.400;7.480;2022-07-09T04:45:48;18.50;99.90
851;DHT22;412;51.400;7.480;2022-07-09T04:48:13;18.60;99.90
851;DHT22;412;51.400;7.480;2022-07-09T04:50:39;18.70;99.90
851;DHT22;412;51.400;7.480;2022-07-09T04:53:05;18.70;99.90
851;DHT22;412;51.400;7.480;2022-07-09T04:55:31;18.80;99.90
851;DHT22;412;51.400;7.480;2022-07-09T04:57:56;18.80;99.90
851;DHT22;412;51.400;7.480;2022-07-09T05:00:22;18.90;99.90
851;DHT22;412;51.400;7.480;2022-07-09T05:02:48;18.90;99.90
851;DHT22;412;51.400;7.480;2022-07-09T05:05:14;18.90;99.90
851;DHT22;412;51.400;7.480;2022-07-09T05:07:40;19.00;99.90
851;DHT22;412;51.400;7.480;2022-07-09T05:10:09;19.00;99.90
851;DHT22;412;51.400;7.480;2022-07-09T05:12:35;19.00;99.90
851;DHT22;412;51.400;7.480;2022-07-09T05:15:01;19.10;99.90
851;DHT22;412;51.400;7.480;2022-07-09T05:17:27;19.10;99.90
851;DHT22;412;51.400;7.480;2022-07-09T05:19:52;19.10;99.90
851;DHT22;412;51.400;7.480;2022-07-09T05:22:18;19.10;99.90
851;DHT22;412;51.400;7.480;2022-07-09T05:24:44;19.20;99.90
851;DHT22;412;51.400;7.480;2022-07-09T05:27:10;19.20;99.90
851;DHT22;412;51.400;7.480;2022-07-09T05:29:36;19.20;99.90
851;DHT22;412;51.400;7.480;2022-07-09T05:32:03;19.20;99.90
851;DHT22;412;51.400;7.480;2022-07-09T05:34:29;19.30;99.90
851;DHT22;412;51.400;7.480;2022-07-09T05:36:55;19.30;99.90
851;DHT22;412;51.400;7.480;2022-07-09T05:39:21;19.30;99.90
851;DHT22;412;51.400;7.480;2022-07-09T05:41:47;19.40;99.90
851;DHT22;412;51.400;7.480;2022-07-09T05:44:14;19.40;99.90
851;DHT22;412;51.400;7.480;2022-07-09T05:46:40;19.50;99.90
851;DHT22;412;51.400;7.480;2022-07-09T05:49:06;19.50;99.90
851;DHT22;412;51.400;7.480;2022-07-09T05:51:33;19.50;99.90
851;DHT22;412;51.400;7.480;2022-07-09T05:53:59;19.60;99.90
851;DHT22;412;51.400;7.480;2022-07-09T05:56:24;19.70;99.90
851;DHT22;412;51.400;7.480;2022-07-09T05:58:50;19.80;99.90
851;DHT22;412;51.400;7.480;2022-07-09T06:01:16;19.80;99.90
851;DHT22;412;51.400;7.480;2022-07-09T06:03:42;19.90;99.90
851;DHT22;412;51.400;7.480;2022-07-09T06:06:09;19.90;99.90
851;DHT22;412;51.400;7.480;2022-07-09T06:08:35;20.00;99.90
851;DHT22;412;51.400;7.480;2022-07-09T06:11:01;20.00;99.90
851;DHT22;412;51.400;7.480;2022-07-09T06:13:27;20.10;99.90
851;DHT22;412;51.400;7.480;2022-07-09T06:15:53;20.10;99.90
851;DHT22;412;51.400;7.480;2022-07-09T06:18:19;20.20;99.90
851;DHT22;412;51.400;7.480;2022-07-09T06:20:45;20.20;99.90
851;DHT22;412;51.400;7.480;2022-07-09T06:23:11;20.20;99.90
851;DHT22;412;51.400;7.480;2022-07-09T06:25:38;20.30;99.90
851;DHT22;412;51.400;7.480;2022-07-09T06:28:04;20.30;99.90
851;DHT22;412;51.400;7.480;2022-07-09T06:30:34;20.30;99.90
851;DHT22;412;51.400;7.480;2022-07-09T06:33:00;20.40;99.90
851;DHT22;412;51.400;7.480;2022-07-09T06:35:26;20.40;99.90
851;DHT22;412;51.400;7.480;2022-07-09T06:37:52;20.50;99.90
851;DHT22;412;51.400;7.480;2022-07-09T06:40:17;20.50;99.90
851;DHT22;412;51.400;7.480;2022-07-09T06:42:43;20.60;99.90
851;DHT22;412;51.400;7.480;2022-07-09T06:45:09;20.60;99.90
851;DHT22;412;51.400;7.480;2022-07-09T06:47:36;20.60;99.90
851;DHT22;412;51.400;7.480;2022-07-09T06:50:02;20.70;99.90
851;DHT22;412;51.400;7.480;2022-07-09T06:52:28;20.80;99.90
851;DHT22;412;51.400;7.480;2022-07-09T06:54:53;20.90;99.90
851;DHT22;412;51.400;7.480;2022-07-09T06:57:19;20.90;99.90
851;DHT22;412;51.400;7.480;2022-07-09T06:59:45;21.00;99.90
851;DHT22;412;51.400;7.480;2022-07-09T07:02:12;21.10;99.90
851;DHT22;412;51.400;7.480;2022-07-09T07:04:38;21.10;99.90
851;DHT22;412;51.400;7.480;2022-07-09T07:07:04;21.20;99.90
851;DHT22;412;51.400;7.480;2022-07-09T07:09:30;21.20;99.90
851;DHT22;412;51.400;7.480;2022-07-09T07:11:57;21.30;99.90
851;DHT22;412;51.400;7.480;2022-07-09T07:14:22;21.30;99.90
851;DHT22;412;51.400;7.480;2022-07-09T07:16:48;21.40;99.90
851;DHT22;412;51.400;7.480;2022-07-09T07:19:14;21.40;99.90
851;DHT22;412;51.400;7.480;2022-07-09T07:21:39;21.50;99.90
851;DHT22;412;51.400;7.480;2022-07-09T07:24:07;21.50;99.90
851;DHT22;412;51.400;7.480;2022-07-09T07:26:33;21.50;99.90
851;DHT22;412;51.400;7.480;2022-07-09T07:28:59;21.60;99.90
851;DHT22;412;51.400;7.480;2022-07-09T07:31:25;21.60;99.90
851;DHT22;412;51.400;7.480;2022-07-09T07:33:51;21.70;99.90
851;DHT22;412;51.400;7.480;2022-07-09T07:36:18;21.70;99.90
851;DHT22;412;51.400;7.480;2022-07-09T07:38:44;21.80;99.90
851;DHT22;412;51.400;7.480;2022-07-09T07:41:11;21.90;99.90
851;DHT22;412;51.400;7.480;2022-07-09T07:43:38;21.90;99.90
851;DHT22;412;51.400;7.480;2022-07-09T07:46:04;22.00;99.90
851;DHT22;412;51.400;7.480;2022-07-09T07:48:29;22.00;99.60
851;DHT22;412;51.400;7.480;2022-07-09T07:50:56;22.10;99.40
851;DHT22;412;51.400;7.480;2022-07-09T07:53:23;22.20;99.00
851;DHT22;412;51.400;7.480;2022-07-09T07:55:49;22.20;99.10
851;DHT22;412;51.400;7.480;2022-07-09T07:58:15;22.40;98.90
851;DHT22;412;51.400;7.480;2022-07-09T08:00:41;22.50;98.80
851;DHT22;412;51.400;7.480;2022-07-09T08:03:07;22.60;98.30
851;DHT22;412;51.400;7.480;2022-07-09T08:05:32;22.70;97.20
851;DHT22;412;51.400;7.480;2022-07-09T08:07:58;22.80;96.60
851;DHT22;412;51.400;7.480;2022-07-09T08:10:24;23.00;97.10
851;DHT22;412;51.400;7.480;2022-07-09T08:12:51;23.20;96.30
851;DHT22;412;51.400;7.480;2022-07-09T08:15:17;23.30;97.10
851;DHT22;412;51.400;7.480;2022-07-09T08:17:43;23.40;95.40
851;DHT22;412;51.400;7.480;2022-07-09T08:20:10;23.50;96.30
851;DHT22;412;51.400;7.480;2022-07-09T08:22:36;23.60;96.20
851;DHT22;412;51.400;7.480;2022-07-09T08:25:03;23.60;96.20
851;DHT22;412;51.400;7.480;2022-07-09T08:27:29;23.60;96.10
851;DHT22;412;51.400;7.480;2022-07-09T08:29:54;23.60;95.70
851;DHT22;412;51.400;7.480;2022-07-09T08:32:20;23.80;95.70
851;DHT22;412;51.400;7.480;2022-07-09T08:34:46;23.90;94.90
851;DHT22;412;51.400;7.480;2022-07-09T08:37:11;24.00;95.20
851;DHT22;412;51.400;7.480;2022-07-09T08:39:37;24.10;94.40
851;DHT22;412;51.400;7.480;2022-07-09T08:42:07;24.10;93.70
851;DHT22;412;51.400;7.480;2022-07-09T08:44:33;24.20;93.90
851;DHT22;412;51.400;7.480;2022-07-09T08:47:03;24.10;93.50
851;DHT22;412;51.400;7.480;2022-07-09T08:49:31;24.20;94.30
851;DHT22;412;51.400;7.480;2022-07-09T08:51:57;24.30;93.10
851;DHT22;412;51.400;7.480;2022-07-09T08:54:23;24.20;92.00
851;DHT22;412;51.400;7.480;2022-07-09T08:56:52;24.30;93.10
851;DHT22;412;51.400;7.480;2022-07-09T08:59:18;24.40;91.80
851;DHT22;412;51.400;7.480;2022-07-09T09:01:44;24.50;92.50
851;DHT22;412;51.400;7.480;2022-07-09T09:04:10;24.70;92.00
851;DHT22;412;51.400;7.480;2022-07-09T09:06:39;24.80;91.70
851;DHT22;412;51.400;7.480;2022-07-09T09:09:09;24.80;91.80
851;DHT22;412;51.400;7.480;2022-07-09T09:11:36;24.90;91.60
851;DHT22;412;51.400;7.480;2022-07-09T09:14:03;24.90;91.00
851;DHT22;412;51.400;7.480;2022-07-09T09:16:29;25.00;90.90
851;DHT22;412;51.400;7.480;2022-07-09T09:18:55;25.10;92.30
851;DHT22;412;51.400;7.480;2022-07-09T09:21:23;25.20;91.00
851;DHT22;412;51.400;7.480;2022-07-09T09:23:50;25.30;90.60
851;DHT22;412;51.400;7.480;2022-07-09T09:26:19;25.50;89.40
851;DHT22;412;51.400;7.480;2022-07-09T09:29:03;25.50;89.70
851;DHT22;412;51.400;7.480;2022-07-09T09:31:30;25.50;89.50
851;DHT22;412;51.400;7.480;2022-07-09T09:34:09;25.40;89.00
851;DHT22;412;51.400;7.480;2022-07-09T09:36:38;25.40;89.10
851;DHT22;412;51.400;7.480;2022-07-09T09:41:40;25.40;88.20
851;DHT22;412;51.400;7.480;2022-07-09T09:44:08;25.40;89.10
851;DHT22;412;51.400;7.480;2022-07-09T09:46:39;25.30;87.80
851;DHT22;412;51.400;7.480;2022-07-09T09:49:06;25.10;88.80
851;DHT22;412;51.400;7.480;2022-07-09T09:51:40;25.00;89.30
851;DHT22;412;51.400;7.480;2022-07-09T09:54:08;24.90;87.90
851;DHT22;412;51.400;7.480;2022-07-09T09:56:35;24.80;88.90
851;DHT22;412;51.400;7.480;2022-07-09T09:59:01;24.70;88.90
851;DHT22;412;51.400;7.480;2022-07-09T10:01:28;24.70;88.50
851;DHT22;412;51.400;7.480;2022-07-09T10:03:55;24.60;88.70
851;DHT22;412;51.400;7.480;2022-07-09T10:06:21;24.50;88.50
851;DHT22;412;51.400;7.480;2022-07-09T10:08:47;24.50;89.20
851;DHT22;412;51.400;7.480;2022-07-09T10:11:13;24.50;89.50
851;DHT22;412;51.400;7.480;2022-07-09T10:13:56;24.40;89.70
851;DHT22;412;51.400;7.480;2022-07-09T10:16:35;24.30;88.70
851;DHT22;412;51.400;7.480;2022-07-09T10:19:02;24.30;90.00
851;DHT22;412;51.400;7.480;2022-07-09T10:21:39;24.30;90.50
851;DHT22;412;51.400;7.480;2022-07-09T10:24:07;24.30;90.20
851;DHT22;412;51.400;7.480;2022-07-09T10:29:25;24.30;90.40
851;DHT22;412;51.400;7.480;2022-07-09T10:31:53;24.30;90.60
851;DHT22;412;51.400;7.480;2022-07-09T10:34:44;24.30;91.70
851;DHT22;412;51.400;7.480;2022-07-09T10:37:11;24.40;91.30
851;DHT22;412;51.400;7.480;2022-07-09T10:39:37;24.30;90.90
851;DHT22;412;51.400;7.480;2022-07-09T10:42:18;24.40;91.30
851;DHT22;412;51.400;7.480;2022-07-09T10:44:45;24.50;91.30
851;DHT22;412;51.400;7.480;2022-07-09T10:47:12;24.50;91.20
851;DHT22;412;51.400;7.480;2022-07-09T10:49:38;24.50;91.60
851;DHT22;412;51.400;7.480;2022-07-09T10:52:05;24.50;92.40
851;DHT22;412;51.400;7.480;2022-07-09T10:54:31;24.60;91.40
851;DHT22;412;51.400;7.480;2022-07-09T10:56:57;24.60;91.00
851;DHT22;412;51.400;7.480;2022-07-09T10:59:24;24.60;90.00
851;DHT22;412;51.400;7.480;2022-07-09T11:01:50;24.60;90.20
851;DHT22;412;51.400;7.480;2022-07-09T11:04:27;24.60;90.30
851;DHT22;412;51.400;7.480;2022-07-09T11:06:54;24.60;90.50
851;DHT22;412;51.400;7.480;2022-07-09T11:09:20;24.70;91.10
851;DHT22;412;51.400;7.480;2022-07-09T11:11:46;24.70;91.10
851;DHT22;412;51.400;7.480;2022-07-09T11:14:15;24.80;90.90
851;DHT22;412;51.400;7.480;2022-07-09T11:16:41;24.80;90.30
851;DHT22;412;51.400;7.480;2022-07-09T11:19:17;24.80;90.70
851;DHT22;412;51.400;7.480;2022-07-09T11:21:43;24.90;91.30
851;DHT22;412;51.400;7.480;2022-07-09T11:24:16;24.90;90.60
851;DHT22;412;51.400;7.480;2022-07-09T11:26:42;24.80;90.10
851;DHT22;412;51.400;7.480;2022-07-09T11:29:09;24.80;90.30
851;DHT22;412;51.400;7.480;2022-07-09T11:31:36;24.80;90.30
851;DHT22;412;51.400;7.480;2022-07-09T11:34:03;24.80;90.50
851;DHT22;412;51.400;7.480;2022-07-09T11:36:42;24.70;90.00
851;DHT22;412;51.400;7.480;2022-07-09T11:39:08;24.60;90.00
851;DHT22;412;51.400;7.480;2022-07-09T11:41:44;24.60;90.60
851;DHT22;412;51.400;7.480;2022-07-09T11:44:10;24.50;91.00
851;DHT22;412;51.400;7.480;2022-07-09T11:46:39;24.60;91.40
851;DHT22;412;51.400;7.480;2022-07-09T11:49:14;24.70;91.20
851;DHT22;412;51.400;7.480;2022-07-09T11:51:41;24.80;91.00
851;DHT22;412;51.400;7.480;2022-07-09T11:54:07;25.00;90.40
851;DHT22;412;51.400;7.480;2022-07-09T11:56:43;25.20;90.50
851;DHT22;412;51.400;7.480;2022-07-09T11:59:11;25.40;90.30
851;DHT22;412;51.400;7.480;2022-07-09T12:01:37;25.60;89.20
851;DHT22;412;51.400;7.480;2022-07-09T12:04:04;25.80;90.20
851;DHT22;412;51.400;7.480;2022-07-09T12:06:30;25.90;85.60
851;DHT22;412;51.400;7.480;2022-07-09T12:09:01;25.90;85.30
851;DHT22;412;51.400;7.480;2022-07-09T12:11:28;25.90;84.50
851;DHT22;412;51.400;7.480;2022-07-09T12:13:54;25.80;83.30
851;DHT22;412;51.400;7.480;2022-07-09T12:16:21;25.60;83.70
851;DHT22;412;51.400;7.480;2022-07-09T12:18:46;25.50;85.10
851;DHT22;412;51.400;7.480;2022-07-09T12:21:12;25.30;84.20
851;DHT22;412;51.400;7.480;2022-07-09T12:23:38;25.10;85.60
851;DHT22;412;51.400;7.480;2022-07-09T12:26:04;24.90;85.80
851;DHT22;412;51.400;7.480;2022-07-09T12:28:29;24.70;86.50
851;DHT22;412;51.400;7.480;2022-07-09T12:30:55;24.60;87.40
851;DHT22;412;51.400;7.480;2022-07-09T12:33:21;24.50;89.20
851;DHT22;412;51.400;7.480;2022-07-09T12:35:46;24.50;90.60
851;DHT22;412;51.400;7.480;2022-07-09T12:38:12;24.40;90.70
851;DHT22;412;51.400;7.480;2022-07-09T12:40:38;24.40;90.80
851;DHT22;412;51.400;7.480;2022-07-09T12:43:04;24.40;91.20
851;DHT22;412;51.400;7.480;2022-07-09T12:45:29;24.40;90.90
851;DHT22;412;51.400;7.480;2022-07-09T12:47:55;24.20;90.50
851;DHT22;412;51.400;7.480;2022-07-09T12:50:21;24.20;91.10
851;DHT22;412;51.400;7.480;2022-07-09T12:52:46;24.10;91.10
851;DHT22;412;51.400;7.480;2022-07-09T12:55:12;24.20;91.60
851;DHT22;412;51.400;7.480;2022-07-09T12:57:38;24.10;91.40
851;DHT22;412;51.400;7.480;2022-07-09T13:00:04;24.00;91.40
851;DHT22;412;51.400;7.480;2022-07-09T13:02:31;23.90;92.30
851;DHT22;412;51.400;7.480;2022-07-09T13:04:57;23.80;92.50
851;DHT22;412;51.400;7.480;2022-07-09T13:07:23;23.60;93.80
851;DHT22;412;51.400;7.480;2022-07-09T13:09:49;23.50;95.80
851;DHT22;412;51.400;7.480;2022-07-09T13:12:15;23.10;98.20
851;DHT22;412;51.400;7.480;2022-07-09T13:14:41;22.90;99.90
851;DHT22;412;51.400;7.480;2022-07-09T13:17:07;22.70;99.90
851;DHT22;412;51.400;7.480;2022-07-09T13:19:32;22.50;99.90
851;DHT22;412;51.400;7.480;2022-07-09T13:21:58;22.30;99.90
851;DHT22;412;51.400;7.480;2022-07-09T13:24:24;22.20;99.90
851;DHT22;412;51.400;7.480;2022-07-09T13:26:49;22.20;99.90
851;DHT22;412;51.400;7.480;2022-07-09T13:29:15;22.10;99.90
851;DHT22;412;51.400;7.480;2022-07-09T13:31:41;22.00;99.90
851;DHT22;412;51.400;7.480;2022-07-09T13:34:06;22.00;99.90
851;DHT22;412;51.400;7.480;2022-07-09T13:36:32;21.80;99.90
851;DHT22;412;51.400;7.480;2022-07-09T13:38:58;21.80;99.90
851;DHT22;412;51.400;7.480;2022-07-09T13:41:23;21.80;99.90
851;DHT22;412;51.400;7.480;2022-07-09T13:43:49;21.80;99.90
851;DHT22;412;51.400;7.480;2022-07-09T13:46:16;21.80;99.90
851;DHT22;412;51.400;7.480;2022-07-09T13:48:42;21.70;99.90
851;DHT22;412;51.400;7.480;2022-07-09T13:51:07;21.60;99.90
851;DHT22;412;51.400;7.480;2022-07-09T13:53:33;21.60;99.90
851;DHT22;412;51.400;7.480;2022-07-09T13:55:59;21.60;99.90
851;DHT22;412;51.400;7.480;2022-07-09T13:58:25;21.50;99.90
851;DHT22;412;51.400;7.480;2022-07-09T14:00:51;21.50;99.90
851;DHT22;412;51.400;7.480;2022-07-09T14:03:17;21.40;99.90
851;DHT22;412;51.400;7.480;2022-07-09T14:05:43;21.30;99.90
851;DHT22;412;51.400;7.480;2022-07-09T14:08:09;21.30;99.90
851;DHT22;412;51.400;7.480;2022-07-09T14:10:35;21.30;99.90
851;DHT22;412;51.400;7.480;2022-07-09T14:13:01;21.40;99.90
851;DHT22;412;51.400;7.480;2022-07-09T14:15:27;21.50;99.90
851;DHT22;412;51.400;7.480;2022-07-09T14:17:52;21.70;99.90
851;DHT22;412;51.400;7.480;2022-07-09T14:20:18;21.80;99.90
851;DHT22;412;51.400;7.480;2022-07-09T14:22:45;22.00;99.90
851;DHT22;412;51.400;7.480;2022-07-09T14:25:11;22.30;99.90
851;DHT22;412;51.400;7.480;2022-07-09T14:27:37;22.40;99.90
851;DHT22;412;51.400;7.480;2022-07-09T14:30:03;22.60;99.90
851;DHT22;412;51.400;7.480;2022-07-09T14:32:29;22.80;99.90
851;DHT22;412;51.400;7.480;2022-07-09T14:34:55;23.00;99.90
851;DHT22;412;51.400;7.480;2022-07-09T14:37:20;23.10;99.90
851;DHT22;412;51.400;7.480;2022-07-09T14:39:46;23.30;99.90
851;DHT22;412;51.400;7.480;2022-07-09T14:42:12;23.40;99.90
851;DHT22;412;51.400;7.480;2022-07-09T14:44:38;23.60;99.90
851;DHT22;412;51.400;7.480;2022-07-09T14:47:03;23.70;99.90
851;DHT22;412;51.400;7.480;2022-07-09T14:49:29;23.80;99.90
851;DHT22;412;51.400;7.480;2022-07-09T14:51:55;23.90;99.90
851;DHT22;412;51.400;7.480;2022-07-09T14:54:21;24.00;99.90
851;DHT22;412;51.400;7.480;2022-07-09T14:56:47;24.10;99.90
851;DHT22;412;51.400;7.480;2022-07-09T14:59:13;24.10;99.90
851;DHT22;412;51.400;7.480;2022-07-09T15:01:43;24.20;99.90
851;DHT22;412;51.400;7.480;2022-07-09T15:04:09;24.30;99.90
851;DHT22;412;51.400;7.480;2022-07-09T15:06:34;24.30;99.90
851;DHT22;412;51.400;7.480;2022-07-09T15:09:00;24.20;99.90
851;DHT22;412;51.400;7.480;2022-07-09T15:11:26;24.10;99.90
851;DHT22;412;51.400;7.480;2022-07-09T15:13:52;23.90;99.90
851;DHT22;412;51.400;7.480;2022-07-09T15:16:17;23.90;99.90
851;DHT22;412;51.400;7.480;2022-07-09T15:18:43;23.90;99.80
851;DHT22;412;51.400;7.480;2022-07-09T15:21:09;23.90;98.70
851;DHT22;412;51.400;7.480;2022-07-09T15:23:36;23.80;98.70
851;DHT22;412;51.400;7.480;2022-07-09T15:26:02;23.80;98.90
851;DHT22;412;51.400;7.480;2022-07-09T15:28:28;23.80;98.50
851;DHT22;412;51.400;7.480;2022-07-09T15:30:54;23.80;98.10
851;DHT22;412;51.400;7.480;2022-07-09T15:33:19;23.80;96.40
851;DHT22;412;51.400;7.480;2022-07-09T15:35:45;23.80;94.70
851;DHT22;412;51.400;7.480;2022-07-09T15:38:11;23.70;94.60
851;DHT22;412;51.400;7.480;2022-07-09T15:40:37;23.60;93.30
851;DHT22;412;51.400;7.480;2022-07-09T15:43:04;23.60;93.20
851;DHT22;412;51.400;7.480;2022-07-09T15:45:32;23.60;93.10
851;DHT22;412;51.400;7.480;2022-07-09T15:47:58;23.60;92.20
851;DHT22;412;51.400;7.480;2022-07-09T15:50:24;23.60;92.10
851;DHT22;412;51.400;7.480;2022-07-09T15:52:49;23.50;91.30
851;DHT22;412;51.400;7.480;2022-07-09T15:55:15;23.50;91.00
851;DHT22;412;51.400;7.480;2022-07-09T15:57:41;23.60;90.20
851;DHT22;412;51.400;7.480;2022-07-09T16:00:12;23.60;90.80
851;DHT22;412;51.400;7.480;2022-07-09T16:02:38;23.60;90.40
851;DHT22;412;51.400;7.480;2022-07-09T16:05:06;23.60;90.80
851;DHT22;412;51.400;7.480;2022-07-09T16:07:32;23.60;89.00
851;DHT22;412;51.400;7.480;2022-07-09T16:09:58;23.60;89.70
851;DHT22;412;51.400;7.480;2022-07-09T16:12:23;23.60;87.60
851;DHT22;412;51.400;7.480;2022-07-09T16:15:08;23.50;85.50
851;DHT22;412;51.400;7.480;2022-07-09T16:17:34;23.40;83.70
851;DHT22;412;51.400;7.480;2022-07-09T16:20:00;23.40;84.30
851;DHT22;412;51.400;7.480;2022-07-09T16:22:26;23.40;84.70
851;DHT22;412;51.400;7.480;2022-07-09T16:24:52;23.40;85.00
851;DHT22;412;51.400;7.480;2022-07-09T16:27:19;23.40;81.50
851;DHT22;412;51.400;7.480;2022-07-09T16:29:44;23.50;80.80
851;DHT22;412;51.400;7.480;2022-07-09T16:32:10;23.40;83.40
851;DHT22;412;51.400;7.480;2022-07-09T16:34:36;23.40;82.20